createdAt,value
2022-11-16T16:04:05.186Z,4.20
2022-11-16T16:07:02.724Z,4.28
2022-11-16T16:09:38.849Z,4.00
2022-11-16T16:12:23.696Z,4.88
2022-11-16T16:14:46.696Z,4.88
2022-11-16T16:17:09.656Z,5.30
2022-11-16T16:19:43.665Z,5.07
2022-11-16T16:22:15.385Z,5.72
2022-11-16T16:24:44.336Z,6.68
2022-11-16T16:27:18.698Z,7.10
2022-11-16T16:29:41.053Z,7.43
2022-11-16T16:32:03.470Z,6.40
2022-11-16T16:34:25.797Z,6.45
2022-11-16T16:36:48.117Z,5.93
2022-11-16T16:39:10.423Z,6.10
2022-11-16T16:41:32.725Z,6.17
2022-11-16T16:43:55.022Z,5.50
2022-11-16T16:46:17.394Z,4.30
2022-11-16T16:48:44.491Z,4.10
2022-11-16T16:51:09.564Z,3.33
2022-11-16T16:53:32.169Z,3.53
2022-11-16T16:55:54.637Z,3.88
2022-11-16T16:58:17.016Z,3.43
2022-11-16T17:00:39.822Z,3.63
2022-11-16T17:03:02.330Z,4.07
2022-11-16T17:05:26.332Z,3.65
2022-11-16T17:07:48.684Z,3.60
2022-11-16T17:10:10.960Z,3.72
2022-11-16T17:12:33.329Z,3.67
2022-11-16T17:14:55.671Z,3.60
2022-11-16T17:17:21.675Z,3.63
2022-11-16T17:19:43.980Z,4.30
2022-11-16T17:22:06.308Z,3.90
2022-11-16T17:24:28.647Z,4.40
2022-11-16T17:26:50.985Z,6.07
2022-11-16T17:29:13.261Z,4.07
2022-11-16T17:31:36.361Z,4.73
2022-11-16T17:33:58.820Z,4.82
2022-11-16T17:36:21.120Z,4.55
2022-11-16T17:38:43.458Z,5.23
2022-11-16T17:41:14.016Z,4.50
2022-11-16T17:43:36.812Z,5.22
2022-11-16T17:46:19.226Z,3.92
2022-11-16T17:48:43.329Z,5.80
2022-11-16T17:51:06.151Z,4.40
2022-11-16T17:53:32.670Z,5.50
2022-11-16T17:55:55.380Z,4.70
2022-11-16T17:58:17.700Z,5.20
2022-11-16T18:00:40.217Z,5.00
2022-11-16T18:03:02.575Z,5.13
2022-11-16T18:05:24.933Z,4.60
2022-11-16T18:07:47.211Z,4.70
2022-11-16T18:10:11.104Z,4.03
2022-11-16T18:12:36.077Z,3.95
2022-11-16T18:15:26.525Z,3.90
2022-11-16T18:17:40.700Z,3.83
2022-11-16T18:20:04.870Z,3.83
2022-11-16T18:22:27.236Z,3.67
2022-11-16T18:24:50.832Z,3.90
2022-11-16T18:27:13.116Z,4.03
2022-11-16T18:29:36.886Z,3.90
2022-11-16T18:31:59.245Z,3.90
2022-11-16T18:34:21.565Z,4.38
2022-11-16T18:36:44.145Z,3.90
2022-11-16T18:39:07.015Z,5.03
2022-11-16T18:41:29.385Z,5.13
2022-11-16T18:43:53.419Z,3.90
2022-11-16T18:46:16.033Z,4.30
2022-11-16T18:48:39.688Z,3.83
2022-11-16T18:51:03.160Z,3.50
2022-11-16T18:53:26.347Z,3.60
2022-11-16T18:58:48.595Z,3.67
2022-11-16T19:01:04.702Z,4.25
2022-11-16T19:03:27.097Z,3.67
2022-11-16T19:05:57.843Z,3.90
2022-11-16T19:08:20.145Z,3.75
2022-11-16T19:10:42.442Z,4.23
2022-11-16T19:13:05.666Z,4.03
2022-11-16T19:18:19.468Z,4.45
2022-11-16T19:20:32.607Z,3.50
2022-11-16T19:22:54.917Z,3.88
2022-11-16T19:25:17.229Z,3.97
2022-11-16T19:27:39.518Z,3.60
2022-11-16T19:30:01.832Z,3.70
2022-11-16T19:32:24.623Z,4.20
2022-11-16T19:34:46.938Z,4.80
2022-11-16T19:37:09.285Z,5.10
2022-11-16T19:39:31.580Z,4.10
2022-11-16T19:41:53.859Z,4.13
2022-11-16T19:44:16.192Z,4.20
2022-11-16T19:46:38.485Z,4.63
2022-11-16T19:49:01.114Z,5.77
2022-11-16T19:51:26.010Z,5.07
2022-11-16T19:53:48.496Z,4.90
2022-11-16T19:56:12.357Z,4.82
2022-11-16T19:58:35.000Z,5.05
2022-11-16T20:01:26.214Z,4.90
2022-11-16T20:03:49.303Z,4.35
2022-11-16T20:06:19.980Z,4.28
2022-11-16T20:08:43.247Z,5.03
2022-11-16T20:11:13.717Z,4.50
2022-11-16T20:13:38.440Z,4.75
2022-11-16T20:16:02.122Z,4.72
2022-11-16T20:18:24.558Z,4.50
2022-11-16T20:20:46.868Z,5.10
2022-11-16T20:23:09.200Z,5.07
2022-11-16T20:25:31.548Z,4.70
2022-11-16T20:27:53.874Z,4.43
2022-11-16T20:30:16.743Z,4.43
2022-11-16T20:32:39.021Z,4.50
2022-11-16T20:35:01.314Z,4.77
2022-11-16T20:37:23.630Z,5.77
2022-11-16T20:39:52.566Z,4.83
2022-11-16T20:42:14.889Z,4.53
2022-11-16T20:44:37.287Z,5.22
2022-11-16T20:46:59.571Z,4.70
2022-11-16T20:49:21.874Z,5.17
2022-11-16T20:51:46.975Z,5.13
2022-11-16T20:54:09.343Z,4.78
2022-11-16T20:56:31.751Z,4.50
2022-11-16T20:58:54.149Z,4.93
2022-11-16T21:01:33.322Z,4.50
2022-11-16T21:04:03.352Z,4.55
2022-11-16T21:06:25.808Z,4.55
2022-11-16T21:08:48.165Z,4.70
2022-11-16T21:11:25.224Z,5.03
2022-11-16T21:14:06.120Z,4.22
2022-11-16T21:16:28.435Z,4.57
2022-11-16T21:18:50.762Z,4.40
2022-11-16T21:21:13.392Z,4.70
2022-11-16T21:23:36.491Z,4.55
2022-11-16T21:28:31.023Z,4.63
2022-11-16T21:31:01.626Z,4.33
2022-11-16T21:33:24.017Z,4.72
2022-11-16T21:35:46.362Z,4.82
2022-11-16T21:38:08.671Z,4.63
2022-11-16T21:40:30.943Z,5.03
2022-11-16T21:42:53.209Z,4.80
2022-11-16T21:45:15.557Z,4.90
2022-11-16T21:47:37.836Z,4.68
2022-11-16T21:50:30.197Z,4.80
2022-11-16T21:52:42.401Z,5.18
2022-11-16T21:55:05.180Z,5.07
2022-11-16T21:57:27.547Z,5.20
2022-11-16T21:59:49.856Z,5.23
2022-11-16T22:02:12.267Z,4.73
2022-11-16T22:04:53.220Z,4.32
2022-11-16T22:07:34.014Z,4.57
2022-11-16T22:09:56.362Z,4.25
2022-11-16T22:12:18.694Z,4.57
2022-11-16T22:14:41.019Z,4.65
2022-11-16T22:17:03.348Z,4.60
2022-11-16T22:19:25.660Z,4.57
2022-11-16T22:21:47.978Z,4.90
2022-11-16T22:24:10.349Z,4.63
2022-11-16T22:26:32.793Z,5.60
2022-11-16T22:28:55.240Z,5.17
2022-11-16T22:31:17.598Z,5.15
2022-11-16T22:33:40.229Z,5.03
2022-11-16T22:36:02.956Z,4.97
2022-11-16T22:38:25.337Z,4.57
2022-11-16T22:40:55.387Z,4.93
2022-11-16T22:43:21.913Z,4.78
2022-11-16T22:45:44.219Z,4.80
2022-11-16T22:48:06.737Z,3.97
2022-11-16T22:50:29.068Z,5.30
2022-11-16T22:52:51.418Z,4.77
2022-11-16T22:55:13.741Z,4.37
2022-11-16T22:57:36.097Z,4.73
2022-11-16T22:59:58.430Z,4.97
2022-11-16T23:02:20.795Z,5.10
2022-11-16T23:04:43.097Z,4.93
2022-11-16T23:07:05.503Z,5.20
2022-11-16T23:09:27.897Z,4.57
2022-11-16T23:12:09.182Z,4.90
2022-11-16T23:14:50.214Z,4.15
2022-11-16T23:17:12.547Z,5.00
2022-11-16T23:19:53.486Z,5.10
2022-11-16T23:22:36.736Z,4.57
2022-11-16T23:25:17.805Z,4.85
2022-11-16T23:27:50.511Z,4.43
2022-11-16T23:30:13.554Z,4.05
2022-11-16T23:32:36.124Z,5.05
2022-11-16T23:34:58.443Z,4.72
2022-11-16T23:37:20.818Z,4.60
2022-11-16T23:39:43.173Z,5.40
2022-11-16T23:42:24.415Z,4.10
2022-11-16T23:44:46.893Z,4.47
2022-11-16T23:47:09.268Z,4.38
2022-11-16T23:49:31.610Z,4.90
2022-11-16T23:51:53.979Z,5.13
2022-11-16T23:54:16.288Z,4.57
2022-11-16T23:56:38.617Z,4.53
2022-11-16T23:59:00.946Z,5.03
